Time;durP1;ratioP1;P1;durP2;ratioP2;P2;SDS_P1;SDS_P2;PMS_P1;PMS_P2;Temp;Humidity;BMP_temperature;BMP_pressure;BME280_temperature;BME280_humidity;BME280_pressure;Samples;Min_cycle;Max_cycle;Signal;HPM_P1;HPM_P2
2022/12/24 00:00:24;;;;;;;;;;;7.60;99.90;;;;;;5091539;28;19951;-68
2022/12/24 00:02:50;;;;;;;;;;;7.60;99.90;;;;;;5091305;28;19919;-68
2022/12/24 00:05:17;;;;;;;;;;;7.60;99.90;;;;;;5110432;28;19915;-68
2022/12/24 00:07:42;;;;;;;;;;;7.60;99.90;;;;;;5110972;28;19945;-69
2022/12/24 00:10:08;;;;;;;;;;;7.60;99.90;;;;;;5111340;28;20317;-68
2022/12/24 00:12:34;;;;;;;;;;;7.60;99.90;;;;;;5096583;28;19916;-68
2022/12/24 00:15:00;;;;;;;;;;;7.60;99.90;;;;;;5110122;28;20006;-68
2022/12/24 00:17:25;;;;;;;;;;;7.60;99.90;;;;;;5098681;28;19920;-68
2022/12/24 00:19:51;;;;;;;;;;;7.60;99.90;;;;;;5084482;28;19984;-68
2022/12/24 00:22:16;;;;;;;;;;;7.60;99.90;;;;;;5074386;28;20295;-68
2022/12/24 00:24:42;;;;;;;;;;;7.60;99.90;;;;;;5095739;28;19927;-68
2022/12/24 00:27:08;;;;;;;;;;;7.50;99.90;;;;;;5110021;28;19959;-69
2022/12/24 00:29:33;;;;;;;;;;;7.50;99.90;;;;;;5109276;28;20452;-69
2022/12/24 00:31:59;;;;;;;;;;;7.50;99.90;;;;;;5094186;28;19942;-68
2022/12/24 00:34:24;;;;;;;;;;;7.50;99.90;;;;;;5104592;28;20034;-68
2022/12/24 00:36:50;;;;;;;;;;;7.50;99.90;;;;;;5085591;28;19924;-68
2022/12/24 00:39:16;;;;;;;;;;;7.50;99.90;;;;;;5098099;28;19955;-69
2022/12/24 00:41:41;;;;;;;;;;;7.50;99.90;;;;;;5093127;28;19920;-68
2022/12/24 00:44:10;;;;;;;;;;;7.50;99.90;;;;;;5079121;28;19924;-69
2022/12/24 00:46:37;;;;;;;;;;;7.50;99.90;;;;;;5075020;28;19924;-71
2022/12/24 00:49:02;;;;;;;;;;;7.50;99.90;;;;;;5104613;28;19920;-67
2022/12/24 00:51:29;;;;;;;;;;;7.50;99.90;;;;;;5095386;28;19916;-68
2022/12/24 00:53:55;;;;;;;;;;;7.50;99.90;;;;;;5089982;28;19916;-68
2022/12/24 00:56:21;;;;;;;;;;;7.50;99.90;;;;;;5092326;28;19919;-68
2022/12/24 00:58:46;;;;;;;;;;;7.50;99.90;;;;;;5091750;28;19916;-68
2022/12/24 01:01:12;;;;;;;;;;;7.50;99.90;;;;;;5109545;28;19962;-67
2022/12/24 01:03:38;;;;;;;;;;;7.40;99.90;;;;;;5105369;28;19989;-68
2022/12/24 01:06:07;;;;;;;;;;;7.40;99.90;;;;;;5096539;28;19935;-67
2022/12/24 01:08:33;;;;;;;;;;;7.40;99.90;;;;;;5082678;28;19917;-68
2022/12/24 01:10:59;;;;;;;;;;;7.40;99.90;;;;;;5082102;28;19927;-73
2022/12/24 01:13:25;;;;;;;;;;;7.40;99.90;;;;;;5070769;28;19916;-68
2022/12/24 01:15:50;;;;;;;;;;;7.40;99.90;;;;;;5096606;28;19964;-69
2022/12/24 01:18:16;;;;;;;;;;;7.50;99.90;;;;;;5108984;28;19916;-68
2022/12/24 01:20:42;;;;;;;;;;;7.40;99.90;;;;;;5069957;28;19924;-70
2022/12/24 01:23:07;;;;;;;;;;;7.40;99.90;;;;;;5086011;28;19915;-68
2022/12/24 01:25:33;;;;;;;;;;;7.40;99.90;;;;;;5088627;28;19916;-67
2022/12/24 01:27:59;;;;;;;;;;;7.40;99.90;;;;;;5075958;28;19922;-67
2022/12/24 01:30:24;;;;;;;;;;;7.40;99.90;;;;;;5107003;28;19919;-67
2022/12/24 01:32:50;;;;;;;;;;;7.40;99.90;;;;;;5064628;28;19972;-68
2022/12/24 01:35:15;;;;;;;;;;;7.40;99.90;;;;;;5100666;28;19926;-66
2022/12/24 01:37:41;;;;;;;;;;;7.40;99.90;;;;;;5084118;28;20305;-67
2022/12/24 01:45:41;;;;;;;;;;;7.40;99.90;;;;;;5093547;28;19930;-68
2022/12/24 01:48:22;;;;;;;;;;;7.30;99.90;;;;;;5089592;28;19915;-68
2022/12/24 01:50:48;;;;;;;;;;;7.30;99.90;;;;;;5088331;28;19926;-68
2022/12/24 01:53:16;;;;;;;;;;;7.30;99.90;;;;;;5087344;28;19927;-68
2022/12/24 01:55:42;;;;;;;;;;;7.30;99.90;;;;;;5091895;28;19916;-68
2022/12/24 01:58:07;;;;;;;;;;;7.30;99.90;;;;;;5091521;28;20305;-69
2022/12/24 02:00:33;;;;;;;;;;;7.30;99.90;;;;;;5099153;28;20326;-69
2022/12/24 02:02:59;;;;;;;;;;;7.30;99.90;;;;;;5088734;28;19923;-68
2022/12/24 02:05:29;;;;;;;;;;;7.30;99.90;;;;;;5109647;28;20368;-69
2022/12/24 02:07:55;;;;;;;;;;;7.30;99.90;;;;;;5092385;28;19930;-68
2022/12/24 02:10:21;;;;;;;;;;;7.30;99.90;;;;;;5092618;28;19916;-68
2022/12/24 02:12:47;;;;;;;;;;;7.30;99.90;;;;;;5105904;28;19915;-69
2022/12/24 02:15:13;;;;;;;;;;;7.30;99.90;;;;;;5088224;28;19916;-69
2022/12/24 02:17:52;;;;;;;;;;;7.30;99.90;;;;;;5095106;28;19920;-68
2022/12/24 02:20:30;;;;;;;;;;;7.20;99.90;;;;;;5093021;28;19912;-68
2022/12/24 02:22:59;;;;;;;;;;;7.20;99.90;;;;;;5094218;28;20437;-68
2022/12/24 02:25:31;;;;;;;;;;;7.20;99.90;;;;;;5095501;28;19920;-68
2022/12/24 02:28:20;;;;;;;;;;;7.20;99.90;;;;;;5079620;28;19954;-68
2022/12/24 02:30:53;;;;;;;;;;;7.30;99.90;;;;;;5092363;28;20388;-69
2022/12/24 02:33:21;;;;;;;;;;;7.20;99.90;;;;;;5093576;28;19952;-68
2022/12/24 02:36:13;;;;;;;;;;;7.20;99.90;;;;;;5098924;28;19930;-68
2022/12/24 02:38:45;;;;;;;;;;;7.20;99.90;;;;;;5096509;28;19920;-68
2022/12/24 02:41:18;;;;;;;;;;;7.20;99.90;;;;;;5091147;28;20026;-68
2022/12/24 02:43:44;;;;;;;;;;;7.20;99.90;;;;;;5094399;28;19923;-68
2022/12/24 02:46:26;;;;;;;;;;;7.10;99.90;;;;;;5088790;28;20003;-68
2022/12/24 02:48:52;;;;;;;;;;;7.10;99.90;;;;;;5085614;28;20333;-68
2022/12/24 02:51:21;;;;;;;;;;;7.00;99.90;;;;;;5104406;28;19965;-68
2022/12/24 02:53:46;;;;;;;;;;;7.00;99.90;;;;;;5095202;28;19926;-69
2022/12/24 02:56:15;;;;;;;;;;;7.10;99.90;;;;;;5103524;28;19924;-68
2022/12/24 02:58:44;;;;;;;;;;;7.00;99.90;;;;;;5101600;28;19919;-69
2022/12/24 03:01:15;;;;;;;;;;;6.90;99.90;;;;;;5110681;28;19916;-68
2022/12/24 03:03:46;;;;;;;;;;;7.00;99.90;;;;;;5093602;28;19920;-69
2022/12/24 03:06:16;;;;;;;;;;;7.00;99.90;;;;;;5090387;28;19916;-69
2022/12/24 03:08:49;;;;;;;;;;;7.10;99.90;;;;;;5086627;28;19923;-68
2022/12/24 03:11:15;;;;;;;;;;;7.10;99.90;;;;;;5078066;28;19916;-68
2022/12/24 03:13:41;;;;;;;;;;;7.10;99.90;;;;;;5097891;28;19927;-67
2022/12/24 03:16:07;;;;;;;;;;;7.10;99.90;;;;;;5111155;28;20384;-67
2022/12/24 03:18:33;;;;;;;;;;;7.10;99.90;;;;;;5087718;28;19916;-67
2022/12/24 03:21:06;;;;;;;;;;;7.00;99.90;;;;;;5084226;28;20233;-68
2022/12/24 03:23:32;;;;;;;;;;;6.90;99.90;;;;;;5075569;28;19974;-68
2022/12/24 03:25:58;;;;;;;;;;;7.00;99.90;;;;;;5080640;28;19947;-68
2022/12/24 03:28:24;;;;;;;;;;;7.00;99.90;;;;;;5083803;28;20467;-68
2022/12/24 03:30:50;;;;;;;;;;;6.90;99.90;;;;;;5085860;28;19943;-67
2022/12/24 03:33:15;;;;;;;;;;;7.00;99.90;;;;;;5104307;28;19916;-67
2022/12/24 03:35:41;;;;;;;;;;;6.90;99.90;;;;;;5102917;28;20230;-67
2022/12/24 03:38:08;;;;;;;;;;;6.90;99.90;;;;;;5095660;28;19920;-68
2022/12/24 03:40:33;;;;;;;;;;;6.90;99.90;;;;;;5110379;28;20034;-68
2022/12/24 03:42:59;;;;;;;;;;;6.90;99.90;;;;;;5092376;28;20026;-68
2022/12/24 03:45:27;;;;;;;;;;;6.90;99.90;;;;;;5093242;28;19912;-68
2022/12/24 03:47:56;;;;;;;;;;;7.00;99.90;;;;;;5079078;28;19911;-68
2022/12/24 03:50:21;;;;;;;;;;;7.10;99.90;;;;;;5098021;28;19922;-68
2022/12/24 03:52:47;;;;;;;;;;;7.10;99.90;;;;;;5064415;28;20226;-66
2022/12/24 03:55:12;;;;;;;;;;;7.30;99.90;;;;;;5097772;28;19916;-68
2022/12/24 03:57:38;;;;;;;;;;;7.40;99.90;;;;;;5110529;28;19920;-68
2022/12/24 04:00:04;;;;;;;;;;;7.40;99.90;;;;;;5101045;28;19928;-67
2022/12/24 04:02:30;;;;;;;;;;;7.60;99.90;;;;;;5108908;28;20057;-67
2022/12/24 04:04:56;;;;;;;;;;;7.60;99.90;;;;;;5093532;28;19916;-67
2022/12/24 04:07:22;;;;;;;;;;;7.90;99.90;;;;;;5093131;28;19927;-68
2022/12/24 04:09:47;;;;;;;;;;;8.00;99.90;;;;;;5108897;28;19915;-68
2022/12/24 04:12:13;;;;;;;;;;;8.20;99.90;;;;;;5085303;28;19916;-67
2022/12/24 04:14:39;;;;;;;;;;;8.30;99.90;;;;;;5100332;28;19999;-68
2022/12/24 04:17:04;;;;;;;;;;;8.40;99.90;;;;;;5077552;28;19920;-68
2022/12/24 04:19:30;;;;;;;;;;;8.50;99.90;;;;;;5103325;28;19926;-68
2022/12/24 04:21:55;;;;;;;;;;;8.60;99.90;;;;;;5091931;28;20064;-68
2022/12/24 04:24:21;;;;;;;;;;;8.70;99.90;;;;;;5069437;28;19920;-68
2022/12/24 04:26:47;;;;;;;;;;;8.80;99.90;;;;;;5086686;28;19920;-68
2022/12/24 04:29:12;;;;;;;;;;;8.80;99.90;;;;;;5111189;28;19972;-69
2022/12/24 04:31:38;;;;;;;;;;;8.80;99.90;;;;;;5100029;28;19923;-68
2022/12/24 04:34:04;;;;;;;;;;;8.90;99.90;;;;;;5102428;28;19916;-68
2022/12/24 04:36:30;;;;;;;;;;;8.90;99.90;;;;;;5103858;28;20041;-69
2022/12/24 04:38:55;;;;;;;;;;;9.00;99.90;;;;;;5102425;28;19937;-69
2022/12/24 04:41:21;;;;;;;;;;;9.00;99.90;;;;;;5104892;28;20412;-68
2022/12/24 04:43:47;;;;;;;;;;;9.10;99.90;;;;;;5102817;28;19911;-69
2022/12/24 04:46:14;;;;;;;;;;;9.10;99.90;;;;;;5086733;28;20434;-69
2022/12/24 04:48:40;;;;;;;;;;;9.10;99.90;;;;;;5107585;28;20065;-69
2022/12/24 04:51:06;;;;;;;;;;;9.20;99.90;;;;;;5076878;28;20007;-68
2022/12/24 04:53:31;;;;;;;;;;;9.10;99.90;;;;;;5092672;28;19916;-67
2022/12/24 04:55:57;;;;;;;;;;;9.20;99.90;;;;;;5104275;28;19927;-68
2022/12/24 04:58:23;;;;;;;;;;;9.10;99.90;;;;;;5099254;28;19927;-67
2022/12/24 05:00:48;;;;;;;;;;;9.20;99.90;;;;;;5093242;28;19926;-68
2022/12/24 05:03:14;;;;;;;;;;;9.20;99.90;;;;;;5110194;28;19968;-67
2022/12/24 05:05:40;;;;;;;;;;;9.20;99.90;;;;;;5085184;28;19920;-67
2022/12/24 05:08:05;;;;;;;;;;;9.20;99.90;;;;;;5108501;28;19912;-67
2022/12/24 05:10:31;;;;;;;;;;;9.20;99.90;;;;;;5097921;28;19923;-66
2022/12/24 05:12:56;;;;;;;;;;;9.30;99.90;;;;;;5092146;28;19915;-66
2022/12/24 05:15:22;;;;;;;;;;;9.20;99.90;;;;;;5099917;28;19915;-67
2022/12/24 05:17:48;;;;;;;;;;;9.30;99.90;;;;;;5083449;28;19920;-67
2022/12/24 05:20:13;;;;;;;;;;;9.20;99.90;;;;;;5054262;28;19920;-67
2022/12/24 05:28:07;;;;;;;;;;;9.30;99.90;;;;;;5084204;28;19920;-67
2022/12/24 05:30:33;;;;;;;;;;;9.30;99.90;;;;;;5087634;28;20268;-66
2022/12/24 05:32:59;;;;;;;;;;;9.30;99.90;;;;;;5088754;28;19915;-67
2022/12/24 05:35:24;;;;;;;;;;;9.30;99.90;;;;;;5081751;28;20392;-67
2022/12/24 05:37:50;;;;;;;;;;;9.30;99.90;;;;;;5108771;28;19930;-67
2022/12/24 05:40:15;;;;;;;;;;;9.30;99.90;;;;;;5076414;28;20473;-66
2022/12/24 05:42:41;;;;;;;;;;;9.30;99.90;;;;;;5093997;28;19916;-67
2022/12/24 05:45:07;;;;;;;;;;;9.30;99.90;;;;;;5085750;28;19916;-67
2022/12/24 05:47:33;;;;;;;;;;;9.30;99.90;;;;;;5088513;28;19924;-67
2022/12/24 05:49:59;;;;;;;;;;;9.30;99.90;;;;;;5089052;28;19916;-68
2022/12/24 05:52:26;;;;;;;;;;;9.30;99.90;;;;;;5101373;28;19962;-66
2022/12/24 05:54:52;;;;;;;;;;;9.30;99.90;;;;;;5113185;28;20040;-67
2022/12/24 05:57:17;;;;;;;;;;;9.40;99.90;;;;;;5090409;28;19955;-66
2022/12/24 05:59:43;;;;;;;;;;;9.40;99.90;;;;;;5094310;28;19982;-66
2022/12/24 06:02:09;;;;;;;;;;;9.30;99.90;;;;;;5082306;28;19984;-66
2022/12/24 06:04:34;;;;;;;;;;;9.30;99.90;;;;;;5108347;28;19923;-67
2022/12/24 06:07:00;;;;;;;;;;;9.30;99.90;;;;;;5093070;28;19970;-67
2022/12/24 06:09:26;;;;;;;;;;;9.30;99.90;;;;;;5108690;28;19916;-66
2022/12/24 06:11:51;;;;;;;;;;;9.30;99.90;;;;;;5085862;28;19955;-67
2022/12/24 06:14:17;;;;;;;;;;;9.40;99.90;;;;;;5078315;28;19928;-66
2022/12/24 06:16:45;;;;;;;;;;;9.30;99.90;;;;;;5091186;28;19935;-66
2022/12/24 06:19:11;;;;;;;;;;;9.30;99.90;;;;;;5093438;28;19968;-66
2022/12/24 06:21:36;;;;;;;;;;;9.30;99.90;;;;;;5094334;28;20030;-68
2022/12/24 06:24:03;;;;;;;;;;;9.30;99.90;;;;;;5095708;28;19919;-67
2022/12/24 06:26:31;;;;;;;;;;;9.30;99.90;;;;;;5077932;28;20348;-68
2022/12/24 06:28:57;;;;;;;;;;;9.30;99.90;;;;;;5069079;28;19983;-66
2022/12/24 06:31:22;;;;;;;;;;;9.30;99.90;;;;;;5090186;28;20359;-67
2022/12/24 06:33:48;;;;;;;;;;;9.20;99.90;;;;;;5087972;28;20253;-67
2022/12/24 06:36:15;;;;;;;;;;;9.30;99.90;;;;;;5084851;28;19928;-66
2022/12/24 06:38:40;;;;;;;;;;;9.20;99.90;;;;;;5098078;28;19916;-66
2022/12/24 06:41:06;;;;;;;;;;;9.20;99.90;;;;;;5094983;28;20060;-67
2022/12/24 06:43:35;;;;;;;;;;;9.10;99.90;;;;;;5106679;28;19931;-67
2022/12/24 06:46:01;;;;;;;;;;;9.10;99.90;;;;;;5093922;28;19927;-66
2022/12/24 06:48:26;;;;;;;;;;;9.10;99.90;;;;;;5087157;28;19920;-66
2022/12/24 06:50:52;;;;;;;;;;;9.10;99.90;;;;;;5076929;28;19931;-68
2022/12/24 06:53:18;;;;;;;;;;;9.10;99.90;;;;;;5111909;28;19959;-66
2022/12/24 06:55:43;;;;;;;;;;;9.10;99.90;;;;;;5094762;28;19969;-67
2022/12/24 06:58:09;;;;;;;;;;;9.10;99.90;;;;;;5104681;28;19927;-68
2022/12/24 07:00:35;;;;;;;;;;;9.10;99.90;;;;;;5096664;28;19916;-68
2022/12/24 07:03:01;;;;;;;;;;;9.10;99.90;;;;;;5103259;28;19922;-68
2022/12/24 07:05:26;;;;;;;;;;;9.10;99.90;;;;;;5071388;28;19916;-68
2022/12/24 07:07:52;;;;;;;;;;;9.20;99.90;;;;;;5112251;28;20325;-68
2022/12/24 07:10:18;;;;;;;;;;;9.10;99.90;;;;;;5087891;28;20259;-68
2022/12/24 07:12:43;;;;;;;;;;;9.10;99.90;;;;;;5088666;28;19934;-68
2022/12/24 07:15:09;;;;;;;;;;;9.10;99.90;;;;;;5077309;28;19915;-68
2022/12/24 07:17:35;;;;;;;;;;;9.10;99.90;;;;;;5084477;28;19920;-68
2022/12/24 07:20:00;;;;;;;;;;;9.10;99.90;;;;;;5111966;28;19923;-69
2022/12/24 07:22:26;;;;;;;;;;;9.10;99.90;;;;;;5109046;28;20337;-68
2022/12/24 07:24:52;;;;;;;;;;;9.10;99.90;;;;;;5101484;28;20325;-71
2022/12/24 07:27:17;;;;;;;;;;;9.10;99.90;;;;;;5087687;28;19912;-69
2022/12/24 07:29:43;;;;;;;;;;;9.10;99.90;;;;;;5111403;28;19926;-69
2022/12/24 07:32:09;;;;;;;;;;;9.10;99.90;;;;;;5101833;27;19999;-68
2022/12/24 07:34:34;;;;;;;;;;;9.10;99.90;;;;;;5089334;28;19922;-71
2022/12/24 07:37:00;;;;;;;;;;;9.10;99.90;;;;;;5084183;28;20038;-68
2022/12/24 07:39:25;;;;;;;;;;;9.10;99.90;;;;;;5081678;28;19916;-69
2022/12/24 07:41:51;;;;;;;;;;;9.20;99.90;;;;;;5085870;28;19927;-69
2022/12/24 07:44:17;;;;;;;;;;;9.20;99.90;;;;;;5111851;28;19973;-68
2022/12/24 07:46:42;;;;;;;;;;;9.20;99.90;;;;;;5086599;28;20063;-67
2022/12/24 07:49:08;;;;;;;;;;;9.20;99.90;;;;;;5075094;28;19946;-67
2022/12/24 07:51:34;;;;;;;;;;;9.30;99.90;;;;;;5090580;28;20276;-67
2022/12/24 07:53:59;;;;;;;;;;;9.30;99.90;;;;;;5096418;28;20404;-69
2022/12/24 07:56:25;;;;;;;;;;;9.30;99.90;;;;;;5095941;28;19920;-67
2022/12/24 07:58:51;;;;;;;;;;;9.30;99.90;;;;;;5097104;28;19916;-68
2022/12/24 08:01:16;;;;;;;;;;;9.30;99.90;;;;;;5090128;28;19916;-68
2022/12/24 08:03:42;;;;;;;;;;;9.30;99.90;;;;;;5087789;28;19919;-69
2022/12/24 08:06:08;;;;;;;;;;;9.30;99.90;;;;;;5110576;28;19912;-68
2022/12/24 08:08:33;;;;;;;;;;;9.30;99.90;;;;;;5111284;28;19922;-69
2022/12/24 08:11:00;;;;;;;;;;;9.30;99.90;;;;;;5074373;28;20364;-67
2022/12/24 08:13:26;;;;;;;;;;;9.30;99.90;;;;;;5093579;28;19923;-67
2022/12/24 08:15:51;;;;;;;;;;;9.30;99.90;;;;;;5108845;28;20238;-68
2022/12/24 08:18:17;;;;;;;;;;;9.30;99.90;;;;;;5090391;28;20683;-67
2022/12/24 08:20:43;;;;;;;;;;;9.30;99.90;;;;;;5070810;28;19920;-68
2022/12/24 08:23:08;;;;;;;;;;;9.30;99.90;;;;;;5089471;28;20139;-68
2022/12/24 08:25:34;;;;;;;;;;;9.30;99.90;;;;;;5084772;28;19916;-67
2022/12/24 08:28:00;;;;;;;;;;;9.30;99.90;;;;;;5108318;28;19915;-68
2022/12/24 08:30:25;;;;;;;;;;;9.30;99.90;;;;;;5085806;28;19994;-68
2022/12/24 08:32:51;;;;;;;;;;;9.30;99.90;;;;;;5103574;28;19916;-68
2022/12/24 08:35:17;;;;;;;;;;;9.30;99.90;;;;;;5096137;28;20639;-68
2022/12/24 08:37:42;;;;;;;;;;;9.30;99.90;;;;;;5108226;28;19924;-68
2022/12/24 08:40:08;;;;;;;;;;;9.30;99.90;;;;;;5090789;28;20245;-68
2022/12/24 08:42:34;;;;;;;;;;;9.30;99.90;;;;;;5086538;28;20060;-68
2022/12/24 08:44:59;;;;;;;;;;;9.30;99.90;;;;;;5093205;28;19912;-68
2022/12/24 08:47:25;;;;;;;;;;;9.30;99.90;;;;;;5092815;28;20336;-68
2022/12/24 08:49:51;;;;;;;;;;;9.30;99.90;;;;;;5109900;28;20328;-69
2022/12/24 08:52:17;;;;;;;;;;;9.30;99.90;;;;;;5100526;28;20016;-67
2022/12/24 08:54:42;;;;;;;;;;;9.30;99.90;;;;;;5093689;28;19965;-67
2022/12/24 08:57:08;;;;;;;;;;;9.30;99.90;;;;;;5090926;28;20008;-68
2022/12/24 08:59:33;;;;;;;;;;;9.30;99.90;;;;;;5076511;28;20096;-68
2022/12/24 09:02:00;;;;;;;;;;;9.30;99.90;;;;;;5110584;28;19935;-67
2022/12/24 09:04:26;;;;;;;;;;;9.30;99.90;;;;;;5110279;28;19995;-69
2022/12/24 09:06:51;;;;;;;;;;;9.30;99.90;;;;;;5097187;28;20061;-69
2022/12/24 09:09:18;;;;;;;;;;;9.30;99.90;;;;;;5091505;28;20305;-69
2022/12/24 09:11:44;;;;;;;;;;;9.40;99.90;;;;;;5103546;28;20040;-69
2022/12/24 09:14:10;;;;;;;;;;;9.40;99.90;;;;;;5076294;28;20328;-70
2022/12/24 09:16:35;;;;;;;;;;;9.40;99.90;;;;;;5092356;28;19919;-68
2022/12/24 09:19:01;;;;;;;;;;;9.40;99.90;;;;;;5095273;28;20368;-67
2022/12/24 09:21:27;;;;;;;;;;;9.50;99.90;;;;;;5090447;28;19916;-68
2022/12/24 09:23:52;;;;;;;;;;;9.40;99.90;;;;;;5108507;28;20124;-68
2022/12/24 09:26:19;;;;;;;;;;;9.50;99.90;;;;;;5097527;28;19912;-68
2022/12/24 09:28:45;;;;;;;;;;;9.50;99.90;;;;;;5092122;28;20643;-68
2022/12/24 09:31:11;;;;;;;;;;;9.50;99.90;;;;;;5105855;28;20083;-67
2022/12/24 09:33:37;;;;;;;;;;;9.50;99.90;;;;;;5091174;28;19965;-68
2022/12/24 09:36:03;;;;;;;;;;;9.50;99.90;;;;;;5062887;28;19970;-68
2022/12/24 09:38:31;;;;;;;;;;;9.40;99.90;;;;;;5083090;28;22007;-68
2022/12/24 09:40:57;;;;;;;;;;;9.40;99.90;;;;;;5066751;28;19942;-68
2022/12/24 09:43:24;;;;;;;;;;;9.40;99.90;;;;;;5106964;28;20333;-69
2022/12/24 09:45:55;;;;;;;;;;;9.30;99.90;;;;;;5098271;28;19924;-69
2022/12/24 09:48:23;;;;;;;;;;;9.30;99.90;;;;;;5108610;28;20011;-69
2022/12/24 09:50:52;;;;;;;;;;;9.30;99.90;;;;;;5073861;28;20222;-69
2022/12/24 09:53:18;;;;;;;;;;;9.30;99.90;;;;;;5093436;28;19995;-69
2022/12/24 09:55:47;;;;;;;;;;;9.30;99.90;;;;;;5103657;28;20010;-69
2022/12/24 09:58:24;;;;;;;;;;;9.40;99.90;;;;;;5101689;28;19993;-68
2022/12/24 10:00:50;;;;;;;;;;;9.30;99.90;;;;;;5096738;28;19916;-68
2022/12/24 10:03:16;;;;;;;;;;;9.40;99.90;;;;;;5071872;28;19964;-69
2022/12/24 10:05:54;;;;;;;;;;;9.40;99.90;;;;;;5078824;28;20234;-68
2022/12/24 10:08:25;;;;;;;;;;;9.50;99.90;;;;;;5106686;28;19919;-68
2022/12/24 10:10:52;;;;;;;;;;;9.70;99.90;;;;;;5088965;28;20393;-70
2022/12/24 10:13:29;;;;;;;;;;;9.80;99.90;;;;;;5089590;28;19927;-68
2022/12/24 10:16:10;;;;;;;;;;;9.90;99.90;;;;;;5100605;28;19916;-67
2022/12/24 10:18:51;;;;;;;;;;;9.90;99.90;;;;;;5110782;28;19930;-68
2022/12/24 10:21:20;;;;;;;;;;;9.90;99.90;;;;;;5103565;28;19915;-68
2022/12/24 10:23:45;;;;;;;;;;;9.90;99.90;;;;;;5109670;28;20351;-67
2022/12/24 10:26:29;;;;;;;;;;;10.00;99.90;;;;;;5077908;28;19999;-67
2022/12/24 10:29:05;;;;;;;;;;;10.20;99.90;;;;;;5100170;28;20010;-68
2022/12/24 10:31:32;;;;;;;;;;;10.30;99.90;;;;;;5108754;28;19912;-68
2022/12/24 10:34:01;;;;;;;;;;;10.40;99.90;;;;;;5084590;28;20023;-69
2022/12/24 10:36:27;;;;;;;;;;;10.50;99.90;;;;;;5101039;28;19976;-68
2022/12/24 10:38:53;;;;;;;;;;;10.40;99.90;;;;;;5098234;28;19916;-68
2022/12/24 10:41:19;;;;;;;;;;;10.40;99.90;;;;;;5091617;28;19919;-68
2022/12/24 10:43:44;;;;;;;;;;;10.30;99.90;;;;;;5094796;28;19915;-68
2022/12/24 10:46:30;;;;;;;;;;;10.40;99.90;;;;;;5082930;28;19991;-69
2022/12/24 10:48:57;;;;;;;;;;;10.40;99.90;;;;;;5081058;28;19931;-69
2022/12/24 10:51:25;;;;;;;;;;;10.40;99.90;;;;;;5080156;28;19943;-68
2022/12/24 10:53:53;;;;;;;;;;;10.40;99.90;;;;;;5111815;28;19915;-68
2022/12/24 10:56:18;;;;;;;;;;;10.30;99.90;;;;;;5078090;28;19920;-68
2022/12/24 10:58:45;;;;;;;;;;;10.30;99.90;;;;;;5092024;28;19973;-68
2022/12/24 11:01:11;;;;;;;;;;;10.20;99.90;;;;;;5101510;28;20011;-68
2022/12/24 11:03:37;;;;;;;;;;;10.20;99.90;;;;;;5087622;28;20015;-68
2022/12/24 11:06:06;;;;;;;;;;;10.20;99.90;;;;;;5108698;28;19988;-67
2022/12/24 11:08:33;;;;;;;;;;;10.30;99.90;;;;;;5104971;28;19916;-68
2022/12/24 11:10:59;;;;;;;;;;;10.20;99.90;;;;;;5093346;28;20310;-70
2022/12/24 11:13:26;;;;;;;;;;;10.20;99.90;;;;;;5094801;28;19916;-70
2022/12/24 11:15:59;;;;;;;;;;;10.10;99.90;;;;;;5056080;28;19955;-70
2022/12/24 11:18:25;;;;;;;;;;;10.00;99.90;;;;;;5107683;28;19947;-71
2022/12/24 11:20:51;;;;;;;;;;;10.20;99.90;;;;;;5093008;28;20330;-71
2022/12/24 11:23:16;;;;;;;;;;;10.10;99.90;;;;;;5090789;28;19985;-70
2022/12/24 11:25:46;;;;;;;;;;;10.10;99.90;;;;;;5080501;28;19916;-70
2022/12/24 11:28:21;;;;;;;;;;;10.10;99.90;;;;;;5082651;28;19916;-71
2022/12/24 11:30:54;;;;;;;;;;;10.00;99.90;;;;;;5092045;28;19926;-70
2022/12/24 11:33:20;;;;;;;;;;;10.10;99.90;;;;;;5085755;28;19920;-71
2022/12/24 11:35:47;;;;;;;;;;;10.20;99.90;;;;;;5060085;28;19977;-71
2022/12/24 11:38:16;;;;;;;;;;;10.10;99.90;;;;;;5105344;28;19923;-70
2022/12/24 11:40:43;;;;;;;;;;;10.10;99.90;;;;;;5105592;28;19927;-71
2022/12/24 11:43:15;;;;;;;;;;;10.10;99.90;;;;;;5102553;28;19927;-71
2022/12/24 11:45:46;;;;;;;;;;;10.10;99.90;;;;;;5080987;28;20473;-71
2022/12/24 11:48:25;;;;;;;;;;;10.10;99.90;;;;;;5092270;28;20007;-68
2022/12/24 11:50:54;;;;;;;;;;;10.10;99.90;;;;;;5091864;28;19969;-69
2022/12/24 11:53:20;;;;;;;;;;;10.10;99.90;;;;;;5094209;28;19922;-69
2022/12/24 11:55:46;;;;;;;;;;;10.20;99.90;;;;;;5101124;28;19916;-68
2022/12/24 11:58:27;;;;;;;;;;;10.10;99.90;;;;;;5088040;28;20015;-69
2022/12/24 12:00:56;;;;;;;;;;;10.10;99.90;;;;;;5090942;28;19916;-68
2022/12/24 12:03:29;;;;;;;;;;;10.10;99.90;;;;;;5081169;28;19970;-69
2022/12/24 12:05:55;;;;;;;;;;;10.10;99.90;;;;;;5079777;28;20539;-68
2022/12/24 12:08:21;;;;;;;;;;;10.00;99.90;;;;;;5093697;28;19916;-68
2022/12/24 12:10:47;;;;;;;;;;;10.00;99.90;;;;;;5106813;28;19915;-68
2022/12/24 12:13:13;;;;;;;;;;;9.90;99.90;;;;;;5090875;28;19920;-68
2022/12/24 12:15:40;;;;;;;;;;;9.90;99.90;;;;;;5092536;28;19927;-67
2022/12/24 12:18:13;;;;;;;;;;;9.90;99.90;;;;;;5107009;28;19920;-67
2022/12/24 12:20:44;;;;;;;;;;;9.90;99.90;;;;;;5068812;28;19926;-68
2022/12/24 12:23:10;;;;;;;;;;;9.80;99.90;;;;;;5078812;28;20010;-69
2022/12/24 12:25:38;;;;;;;;;;;9.80;99.90;;;;;;5101122;28;20030;-68
2022/12/24 12:28:05;;;;;;;;;;;9.90;99.90;;;;;;5100806;28;19992;-68
2022/12/24 12:30:31;;;;;;;;;;;9.80;99.90;;;;;;5109703;28;20337;-69
2022/12/24 12:33:02;;;;;;;;;;;9.80;99.90;;;;;;5100238;28;19923;-68
2022/12/24 12:35:40;;;;;;;;;;;9.80;99.90;;;;;;5070444;28;19916;-69
2022/12/24 12:38:27;;;;;;;;;;;9.80;99.90;;;;;;5097049;28;19928;-68
2022/12/24 12:40:56;;;;;;;;;;;9.80;99.90;;;;;;5095557;28;19920;-68
2022/12/24 12:43:28;;;;;;;;;;;9.80;99.90;;;;;;5109226;28;19941;-68
2022/12/24 12:45:56;;;;;;;;;;;9.80;99.90;;;;;;5107479;28;19916;-68
2022/12/24 12:48:40;;;;;;;;;;;9.70;99.90;;;;;;5091708;28;19916;-69
2022/12/24 12:51:21;;;;;;;;;;;9.70;99.90;;;;;;5100622;28;20003;-68
2022/12/24 12:53:50;;;;;;;;;;;9.70;99.90;;;;;;5096463;28;19950;-68
2022/12/24 12:56:26;;;;;;;;;;;9.70;99.90;;;;;;5110354;28;19958;-67
2022/12/24 12:58:58;;;;;;;;;;;9.70;99.90;;;;;;5086316;28;19924;-68
2022/12/24 13:01:25;;;;;;;;;;;9.60;99.90;;;;;;5106267;28;20340;-69
2022/12/24 13:04:09;;;;;;;;;;;9.60;99.90;;;;;;5100048;28;20030;-68
2022/12/24 13:06:35;;;;;;;;;;;9.60;99.90;;;;;;5095165;28;19916;-68
2022/12/24 13:09:19;;;;;;;;;;;9.50;99.90;;;;;;5095336;28;19927;-68
2022/12/24 13:11:49;;;;;;;;;;;9.60;99.90;;;;;;5070374;28;19928;-71
2022/12/24 13:14:24;;;;;;;;;;;9.50;99.90;;;;;;5091185;28;19916;-68
2022/12/24 13:16:59;;;;;;;;;;;9.40;99.90;;;;;;5109317;28;19926;-68
2022/12/24 13:19:43;;;;;;;;;;;9.40;99.90;;;;;;5102024;28;20006;-69
2022/12/24 13:22:13;;;;;;;;;;;9.50;99.90;;;;;;5106791;28;20373;-68
2022/12/24 13:24:39;;;;;;;;;;;9.70;99.90;;;;;;5090403;28;19976;-69
2022/12/24 13:27:13;;;;;;;;;;;9.70;99.90;;;;;;5093318;28;20006;-69
2022/12/24 13:29:39;;;;;;;;;;;9.70;99.90;;;;;;5101665;28;19919;-68
2022/12/24 13:32:20;;;;;;;;;;;9.70;99.90;;;;;;5109081;28;20349;-68
2022/12/24 13:34:47;;;;;;;;;;;9.90;99.90;;;;;;5109805;28;20525;-69
2022/12/24 13:37:19;;;;;;;;;;;10.00;99.90;;;;;;5088045;28;19924;-68
2022/12/24 13:40:00;;;;;;;;;;;9.90;99.90;;;;;;5108299;28;19924;-68
2022/12/24 13:42:52;;;;;;;;;;;9.80;99.90;;;;;;5109254;28;20120;-68
2022/12/24 13:45:33;;;;;;;;;;;9.80;99.90;;;;;;5066220;28;20330;-68
2022/12/24 13:48:12;;;;;;;;;;;9.80;99.90;;;;;;5090056;28;19927;-68
2022/12/24 13:50:48;;;;;;;;;;;9.70;99.90;;;;;;5094488;28;19916;-68
2022/12/24 13:53:33;;;;;;;;;;;9.70;99.90;;;;;;5106276;28;19920;-68
2022/12/24 13:56:06;;;;;;;;;;;9.80;99.90;;;;;;5091198;28;20410;-68
2022/12/24 13:58:32;;;;;;;;;;;9.70;99.90;;;;;;5089891;28;19920;-68
2022/12/24 14:00:58;;;;;;;;;;;9.60;99.90;;;;;;5081524;28;20006;-67
2022/12/24 14:03:25;;;;;;;;;;;9.70;99.90;;;;;;5071107;28;19917;-67
2022/12/24 14:05:52;;;;;;;;;;;9.60;99.90;;;;;;5065036;28;19920;-68
2022/12/24 14:08:21;;;;;;;;;;;9.60;99.90;;;;;;5101498;28;20358;-66
2022/12/24 14:11:05;;;;;;;;;;;9.60;99.90;;;;;;5090491;28;20589;-67
2022/12/24 14:13:37;;;;;;;;;;;9.60;99.90;;;;;;5087920;28;20368;-66
2022/12/24 14:16:07;;;;;;;;;;;9.70;99.90;;;;;;5095304;28;19930;-66
2022/12/24 14:18:34;;;;;;;;;;;9.70;99.90;;;;;;5091860;28;19949;-67
2022/12/24 14:21:00;;;;;;;;;;;9.70;99.90;;;;;;5109129;28;19916;-67
2022/12/24 14:23:36;;;;;;;;;;;9.60;99.90;;;;;;5108575;28;19926;-67
2022/12/24 14:26:02;;;;;;;;;;;9.70;99.90;;;;;;5073598;28;19916;-68
2022/12/24 14:28:33;;;;;;;;;;;9.60;99.90;;;;;;5101915;28;19923;-68
2022/12/24 14:31:00;;;;;;;;;;;9.70;99.90;;;;;;5103269;28;19916;-67
2022/12/24 14:33:29;;;;;;;;;;;9.70;99.90;;;;;;5109596;28;19961;-67
2022/12/24 14:35:55;;;;;;;;;;;9.70;99.90;;;;;;5094940;28;20332;-68
2022/12/24 14:38:21;;;;;;;;;;;9.70;99.90;;;;;;5105052;28;19924;-69
2022/12/24 14:40:59;;;;;;;;;;;9.60;99.90;;;;;;5087401;28;19999;-69
2022/12/24 14:43:31;;;;;;;;;;;9.60;99.90;;;;;;5101133;28;19920;-68